• Join FlightAware (Why Join?)
  • Login
  • US Flag 
07:25PM EDT


 

Airport Tracker/Info


-or-


 

Live Flight TrackerFlight Track Log ✈ N830QS ✈ 23-Jun-2013 ✈ KELP - KAPA

Flight Track Log - Related Links

Times and Time Zones

All times are in EDT time to prevent confusion due to time zone crossing. See the N830QS flight status page for this flight to view local times or setup timezone preferences in your user account.

Time Position Orientation Groundspeed Altitude Reporting Facility
EDT Latitude Longitude Course Direction KTS MPH feet Rate Location/Type
08:30PM 31.8025 -106.3928 244° Southwest 154 177 4,700  Level Albuquerque Center
08:31PM 31.7803 -106.4458 244° Southwest 193 222 7,000 1,860 Climbing Albuquerque Center
08:32PM 31.7678 -106.5161 258° West 253 291 8,800 2,280 Climbing Albuquerque Center
08:33PM 31.8150 -106.5992 304° West 280 322 11,900 2,580 Climbing Albuquerque Center
08:34PM 31.8786 -106.6553 323° Northwest 299 344 14,200 2,280 Climbing Albuquerque Center
08:35PM 31.9625 -106.6911 340° North 320 368 16,600 2,160 Climbing Albuquerque Center
08:36PM 32.0494 -106.7286 340° North 332 382 18,700 2,220 Climbing Albuquerque Center
08:37PM 32.1597 -106.7772 340° North 352 405 21,300 2,220 Climbing Albuquerque Center
08:38PM 32.2528 -106.8183 340° North 358 412 23,300 1,800 Climbing Albuquerque Center
08:39PM 32.3453 -106.8592 340° North 358 412 25,100 1,680 Climbing Albuquerque Center
08:40PM 32.4461 -106.9031 340° North 364 419 26,800 1,620 Climbing Albuquerque Center
08:41PM 32.5283 -106.9431 338° Northwest 369 425 28,500 2,040 Climbing Albuquerque Center
08:42PM 32.6389 -106.9917 340° North 355 409 31,100 2,100 Climbing Albuquerque Center
08:43PM 32.7322 -107.0342 339° North 349 402 32,900 1,800 Climbing Albuquerque Center
08:44PM 32.8222 -107.0731 340° North 347 399 34,800 1,560 Climbing Albuquerque Center
08:45PM 32.9086 -107.1133 339° North 337 388 36,200 1,560 Climbing Albuquerque Center
08:46PM 32.9956 -107.1533 339° North 336 387 38,000 1,560 Climbing Albuquerque Center
08:47PM 33.0817 -107.1917 340° North 333 383 39,400 960 Climbing Albuquerque Center
08:48PM 33.1678 -107.2281 341° North 329 379 40,000 240 Climbing Albuquerque Center
08:49PM 33.2628 -107.2667 341° North 351 404 40,000  Level Albuquerque Center
08:50PM 33.3939 -107.2511 North 393 452 40,000  Level Albuquerque Center
08:51PM 33.5025 -107.2225 12° North 398 458 40,000  Level Albuquerque Center
08:52PM 33.6114 -107.1981 11° North 399 459 40,000  Level Albuquerque Center
08:53PM 33.7222 -107.1678 13° North 404 465 40,000  Level Albuquerque Center
08:54PM 33.8311 -107.1386 13° North 402 463 40,000  Level Albuquerque Center
08:55PM 33.9419 -107.1108 12° North 406 467 40,000  Level Albuquerque Center
08:56PM 34.0553 -107.0808 12° North 413 475 40,000  Level Albuquerque Center
08:57PM 34.1869 -107.0447 13° North 407 468 40,000  Level Albuquerque Center
08:59PM 34.2986 -107.0158 12° North 409 471 40,000  Level Albuquerque Center
09:00PM 34.4036 -106.9886 12° North 410 472 40,000  Level Albuquerque Center
09:01PM 34.5175 -106.9575 13° North 417 480 40,000  Level Albuquerque Center
09:02PM 34.6317 -106.9275 12° North 419 482 40,000  Level Albuquerque Center
09:03PM 34.7444 -106.8969 13° North 418 481 40,000  Level Albuquerque Center
09:04PM 34.8789 -106.8617 12° North 416 479 40,000  Level Albuquerque Center
09:05PM 34.9886 -106.8325 12° North 421 484 40,000  Level Albuquerque Center
09:06PM 35.1136 -106.7878 16° North 420 483 40,000  Level Albuquerque Center
09:07PM 35.2214 -106.7428 19° North 426 490 40,000  Level Albuquerque Center
09:08PM 35.3447 -106.6900 19° North 423 487 40,000  Level Albuquerque Center
09:09PM 35.4589 -106.6411 19° North 432 497 40,000  Level Albuquerque Center
09:10PM 35.5694 -106.5939 19° North 426 490 40,000  Level Albuquerque Center
09:11PM 35.6847 -106.5458 19° North 420 483 40,000  Level Albuquerque Center
09:12PM 35.7892 -106.5008 19° North 417 480 40,000 -360 Level Albuquerque Center
09:13PM 35.9122 -106.4472 19° North 418 481 39,300 -540 Descending Albuquerque Center
09:14PM 36.0131 -106.4050 19° North 429 494 39,000 -180 Descending Albuquerque Center
09:15PM 36.1247 -106.3583 19° North 427 491 39,000  Level Albuquerque Center
09:16PM 36.2533 -106.3022 19° North 425 489 39,000  Level Albuquerque Center
09:17PM 36.3611 -106.2553 19° North 428 493 39,000  Level Albuquerque Center
09:18PM 36.4867 -106.2006 19° North 429 494 39,000  Level Albuquerque Center
09:19PM 36.5956 -106.1533 19° North 431 496 39,000  Level Albuquerque Center
09:20PM 36.6878 -106.1117 20° North 431 496 39,000  Level Denver Center
09:21PM 36.8153 -106.0558 19° North 422 486 39,000  Level Denver Center
09:22PM 36.9206 -106.0086 20° North 418 481 39,000 -480 Level Denver Center
09:23PM 37.0386 -105.9558 20° North 425 489 38,100 -540 Descending Denver Center
09:24PM 37.1617 -105.9008 20° North 422 486 38,000 -480 Descending Denver Center
09:25PM 37.2667 -105.8556 19° North 417 480 37,200 -1,860 Descending Denver Center
09:26PM 37.3914 -105.8286 10° North 419 482 34,200 -2,100 Descending Denver Center
09:27PM 37.4942 -105.8533 349° North 393 452 33,000 -600 Descending Denver Center
09:28PM 37.6067 -105.8808 349° North 396 456 33,000 -720 Level Denver Center
09:29PM 37.7119 -105.9069 349° North 401 461 31,600 -1,740 Descending Denver Center
09:30PM 37.8333 -105.9392 348° North 399 459 29,500 -1,320 Descending Denver Center
09:31PM 37.9361 -105.9636 349° North 392 451 29,000 -300 Descending Denver Center
09:32PM 38.0597 -105.9972 348° North 403 464 29,000 -120 Level Denver Center
09:33PM 38.1672 -106.0228 349° North 408 470 28,800 -1,020 Descending Denver Center
09:34PM 38.2908 -106.0556 348° North 406 467 27,000 -900 Descending Denver Center
09:35PM 38.3953 -106.0722 353° North 395 455 27,000  Level Denver Center
09:36PM 38.4914 -106.0017 30° Northeast 423 487 27,000  Level Denver Center
09:37PM 38.5903 -105.8875 42° Northeast 429 494 27,000 -360 Level Denver Center
09:38PM 38.6761 -105.7903 41° Northeast 431 496 26,300 -1,500 Descending Denver Center
09:39PM 38.7733 -105.6772 42° Northeast 425 489 23,900 -2,100 Descending Denver Center
09:41PM 38.8550 -105.5828 42° Northeast 417 480 22,000 -1,860 Descending Denver Center
09:42PM 38.9489 -105.4733 42° Northeast 409 471 19,800 -2,340 Descending Denver Center
09:43PM 39.0394 -105.3664 43° Northeast 407 468 16,800 -2,340 Descending Denver Center
09:44PM 39.1325 -105.2586 42° Northeast 380 437 15,000 -1,560 Descending Denver Center
09:45PM 39.2019 -105.1742 43° Northeast 351 404 13,600 -1,560 Descending Denver Center
09:46PM 39.2636 -105.0906 46° Northeast 321 369 11,800 -1,320 Descending Denver Center
09:47PM 39.3281 -105.0092 44° Northeast 307 353 10,900 -960 Descending Denver Center
09:48PM 39.3897 -104.9272 46° Northeast 317 365 9,900 -1,500 Descending Denver Center
09:49PM 39.4558 -104.8622 37° Northeast 277 319 7,900 -1,500 Descending Denver Center
09:50PM 39.5172 -104.8483 10° North 206 237 6,900 -1,020 Descending Denver Center
09:51PM 39.5569 -104.8503 358° North 140 161 5,800 -1,080 Descending Denver Center
09:53PM 39.5667 -104.8333 North  Level FlightAware Approximate
10:00PM 39.5701 -104.8493 North  Level Estimated
10:01PM 39.5701 -104.8493 North  Level Estimated